sensor_id;sensor_type;location;lat;lon;timestamp;temperature;humidity
45104;DHT22;30865;51.288;4.572;2023-04-24T05:30:22;10.10;99.90
45104;DHT22;30865;51.288;4.572;2023-04-24T05:32:48;10.00;99.90
45104;DHT22;30865;51.288;4.572;2023-04-24T05:35:13;10.00;99.90
45104;DHT22;30865;51.288;4.572;2023-04-24T05:37:39;9.90;99.90
45104;DHT22;30865;51.288;4.572;2023-04-24T05:40:05;10.10;99.90
45104;DHT22;30865;51.288;4.572;2023-04-24T05:42:31;10.00;99.90
45104;DHT22;30865;51.288;4.572;2023-04-24T05:44:57;9.90;99.90
45104;DHT22;30865;51.288;4.572;2023-04-24T05:47:22;10.00;99.90
45104;DHT22;30865;51.288;4.572;2023-04-24T05:49:48;10.10;99.90
45104;DHT22;30865;51.288;4.572;2023-04-24T05:52:13;10.10;99.90
45104;DHT22;30865;51.288;4.572;2023-04-24T05:54:42;10.20;99.90
45104;DHT22;30865;51.288;4.572;2023-04-24T05:57:07;10.20;99.90
45104;DHT22;30865;51.288;4.572;2023-04-24T05:59:36;10.20;99.90
45104;DHT22;30865;51.288;4.572;2023-04-24T06:02:01;10.10;99.90
45104;DHT22;30865;51.288;4.572;2023-04-24T06:04:27;10.10;99.90
45104;DHT22;30865;51.288;4.572;2023-04-24T06:06:52;10.10;99.90
45104;DHT22;30865;51.288;4.572;2023-04-24T06:09:22;9.90;99.90
45104;DHT22;30865;51.288;4.572;2023-04-24T06:11:47;9.90;99.90
45104;DHT22;30865;51.288;4.572;2023-04-24T06:14:13;9.90;99.90
45104;DHT22;30865;51.288;4.572;2023-04-24T06:16:41;10.00;99.90
45104;DHT22;30865;51.288;4.572;2023-04-24T06:19:07;10.00;99.90
45104;DHT22;30865;51.288;4.572;2023-04-24T06:21:33;10.00;99.90
45104;DHT22;30865;51.288;4.572;2023-04-24T06:23:59;10.20;99.90
45104;DHT22;30865;51.288;4.572;2023-04-24T06:26:25;10.50;99.90
45104;DHT22;30865;51.288;4.572;2023-04-24T06:28:52;10.50;99.90
45104;DHT22;30865;51.288;4.572;2023-04-24T06:31:19;10.50;99.90
45104;DHT22;30865;51.288;4.572;2023-04-24T06:33:48;10.70;99.90
45104;DHT22;30865;51.288;4.572;2023-04-24T06:36:14;10.80;99.90
45104;DHT22;30865;51.288;4.572;2023-04-24T06:38:39;11.10;99.90
45104;DHT22;30865;51.288;4.572;2023-04-24T06:41:05;11.00;99.90
45104;DHT22;30865;51.288;4.572;2023-04-24T06:43:34;11.40;99.90
45104;DHT22;30865;51.288;4.572;2023-04-24T06:46:00;11.40;99.90
45104;DHT22;30865;51.288;4.572;2023-04-24T06:48:26;11.30;99.90
45104;DHT22;30865;51.288;4.572;2023-04-24T06:50:52;11.50;99.90
45104;DHT22;30865;51.288;4.572;2023-04-24T06:53:17;11.60;99.90
45104;DHT22;30865;51.288;4.572;2023-04-24T06:55:43;11.60;99.90
45104;DHT22;30865;51.288;4.572;2023-04-24T06:58:11;11.70;99.90
45104;DHT22;30865;51.288;4.572;2023-04-24T07:00:37;11.90;99.90
45104;DHT22;30865;51.288;4.572;2023-04-24T07:03:03;11.60;99.90
45104;DHT22;30865;51.288;4.572;2023-04-24T07:05:30;11.70;99.90
45104;DHT22;30865;51.288;4.572;2023-04-24T07:07:56;11.80;99.90
45104;DHT22;30865;51.288;4.572;2023-04-24T07:10:23;11.90;99.90
45104;DHT22;30865;51.288;4.572;2023-04-24T07:12:49;12.20;99.90
45104;DHT22;30865;51.288;4.572;2023-04-24T07:15:15;12.10;99.90
45104;DHT22;30865;51.288;4.572;2023-04-24T07:17:41;11.90;99.90
45104;DHT22;30865;51.288;4.572;2023-04-24T07:20:10;11.90;99.90
45104;DHT22;30865;51.288;4.572;2023-04-24T07:22:39;12.10;99.90
45104;DHT22;30865;51.288;4.572;2023-04-24T07:25:05;11.80;99.90
45104;DHT22;30865;51.288;4.572;2023-04-24T07:27:30;11.80;99.90
45104;DHT22;30865;51.288;4.572;2023-04-24T07:29:56;11.50;99.90
45104;DHT22;30865;51.288;4.572;2023-04-24T07:32:21;11.40;99.90
45104;DHT22;30865;51.288;4.572;2023-04-24T07:34:47;11.50;99.90
45104;DHT22;30865;51.288;4.572;2023-04-24T07:37:13;11.60;99.90
45104;DHT22;30865;51.288;4.572;2023-04-24T07:39:38;11.50;99.90
45104;DHT22;30865;51.288;4.572;2023-04-24T07:42:04;11.50;99.90
45104;DHT22;30865;51.288;4.572;2023-04-24T07:44:29;11.50;99.90
45104;DHT22;30865;51.288;4.572;2023-04-24T07:46:55;11.50;99.90
45104;DHT22;30865;51.288;4.572;2023-04-24T07:49:21;11.60;99.90
45104;DHT22;30865;51.288;4.572;2023-04-24T07:51:47;11.70;99.90
45104;DHT22;30865;51.288;4.572;2023-04-24T07:54:12;12.10;99.90
45104;DHT22;30865;51.288;4.572;2023-04-24T07:56:38;12.20;99.90
45104;DHT22;30865;51.288;4.572;2023-04-24T07:59:05;12.10;99.90
45104;DHT22;30865;51.288;4.572;2023-04-24T08:01:30;12.30;99.90
45104;DHT22;30865;51.288;4.572;2023-04-24T08:03:56;12.50;99.90
45104;DHT22;30865;51.288;4.572;2023-04-24T08:06:22;12.50;99.90
45104;DHT22;30865;51.288;4.572;2023-04-24T08:08:47;12.80;99.90
45104;DHT22;30865;51.288;4.572;2023-04-24T08:11:13;13.00;99.90
45104;DHT22;30865;51.288;4.572;2023-04-24T08:13:40;12.80;99.90
45104;DHT22;30865;51.288;4.572;2023-04-24T08:16:05;12.80;99.90
45104;DHT22;30865;51.288;4.572;2023-04-24T08:18:31;12.70;99.90
45104;DHT22;30865;51.288;4.572;2023-04-24T08:20:57;12.80;99.90
45104;DHT22;30865;51.288;4.572;2023-04-24T08:23:26;12.80;98.90
45104;DHT22;30865;51.288;4.572;2023-04-24T08:25:52;13.00;99.00
45104;DHT22;30865;51.288;4.572;2023-04-24T08:28:17;13.00;96.90
45104;DHT22;30865;51.288;4.572;2023-04-24T08:30:46;13.00;97.40
45104;DHT22;30865;51.288;4.572;2023-04-24T08:33:12;12.90;98.20
45104;DHT22;30865;51.288;4.572;2023-04-24T08:35:38;13.30;96.80
45104;DHT22;30865;51.288;4.572;2023-04-24T08:38:04;13.40;99.00
45104;DHT22;30865;51.288;4.572;2023-04-24T08:40:37;13.50;97.20
45104;DHT22;30865;51.288;4.572;2023-04-24T08:43:03;13.80;97.40
45104;DHT22;30865;51.288;4.572;2023-04-24T08:45:29;13.80;97.30
45104;DHT22;30865;51.288;4.572;2023-04-24T08:47:55;14.00;97.10
45104;DHT22;30865;51.288;4.572;2023-04-24T08:50:24;13.70;98.10
45104;DHT22;30865;51.288;4.572;2023-04-24T08:52:51;13.60;96.90
45104;DHT22;30865;51.288;4.572;2023-04-24T08:55:19;13.20;97.80
45104;DHT22;30865;51.288;4.572;2023-04-24T08:57:50;13.10;98.00
45104;DHT22;30865;51.288;4.572;2023-04-24T09:00:16;12.80;96.30
45104;DHT22;30865;51.288;4.572;2023-04-24T09:02:45;12.70;97.80
45104;DHT22;30865;51.288;4.572;2023-04-24T09:05:13;12.50;98.50
45104;DHT22;30865;51.288;4.572;2023-04-24T09:07:40;12.40;97.90
45104;DHT22;30865;51.288;4.572;2023-04-24T09:10:07;12.40;97.80
45104;DHT22;30865;51.288;4.572;2023-04-24T09:12:34;12.20;98.50
45104;DHT22;30865;51.288;4.572;2023-04-24T09:15:01;12.50;98.50
45104;DHT22;30865;51.288;4.572;2023-04-24T09:17:28;12.20;98.60
45104;DHT22;30865;51.288;4.572;2023-04-24T09:19:55;12.10;99.30
45104;DHT22;30865;51.288;4.572;2023-04-24T09:22:21;12.20;99.50
45104;DHT22;30865;51.288;4.572;2023-04-24T09:24:47;12.00;99.50
45104;DHT22;30865;51.288;4.572;2023-04-24T09:27:13;11.90;99.90
45104;DHT22;30865;51.288;4.572;2023-04-24T09:29:53;11.80;99.90
45104;DHT22;30865;51.288;4.572;2023-04-24T09:32:21;11.50;99.90
45104;DHT22;30865;51.288;4.572;2023-04-24T09:34:48;11.40;99.90
45104;DHT22;30865;51.288;4.572;2023-04-24T09:37:30;11.60;99.90
45104;DHT22;30865;51.288;4.572;2023-04-24T09:42:43;11.90;99.90
45104;DHT22;30865;51.288;4.572;2023-04-24T09:45:10;11.60;99.90
45104;DHT22;30865;51.288;4.572;2023-04-24T09:47:37;11.90;99.90
45104;DHT22;30865;51.288;4.572;2023-04-24T09:50:30;12.20;99.90
45104;DHT22;30865;51.288;4.572;2023-04-24T09:52:58;12.10;98.80
45104;DHT22;30865;51.288;4.572;2023-04-24T09:55:24;12.70;99.90
45104;DHT22;30865;51.288;4.572;2023-04-24T09:57:57;13.30;97.10
45104;DHT22;30865;51.288;4.572;2023-04-24T10:00:27;13.30;97.00
45104;DHT22;30865;51.288;4.572;2023-04-24T10:03:03;13.10;96.70
45104;DHT22;30865;51.288;4.572;2023-04-24T10:05:33;12.70;96.00
45104;DHT22;30865;51.288;4.572;2023-04-24T10:08:09;12.70;96.90
45104;DHT22;30865;51.288;4.572;2023-04-24T10:10:39;12.50;97.10
45104;DHT22;30865;51.288;4.572;2023-04-24T10:13:05;12.20;96.10
45104;DHT22;30865;51.288;4.572;2023-04-24T10:15:33;12.40;95.90
45104;DHT22;30865;51.288;4.572;2023-04-24T10:17:59;12.40;95.70
45104;DHT22;30865;51.288;4.572;2023-04-24T10:20:27;12.70;95.30
45104;DHT22;30865;51.288;4.572;2023-04-24T10:22:54;12.60;92.40
45104;DHT22;30865;51.288;4.572;2023-04-24T10:25:22;12.90;90.80
45104;DHT22;30865;51.288;4.572;2023-04-24T10:27:49;13.40;90.00
45104;DHT22;30865;51.288;4.572;2023-04-24T10:30:15;13.70;90.70
45104;DHT22;30865;51.288;4.572;2023-04-24T10:32:41;14.10;90.90
45104;DHT22;30865;51.288;4.572;2023-04-24T10:35:08;14.40;89.00
45104;DHT22;30865;51.288;4.572;2023-04-24T10:38:03;14.70;83.40
45104;DHT22;30865;51.288;4.572;2023-04-24T10:40:31;14.80;77.60
45104;DHT22;30865;51.288;4.572;2023-04-24T10:42:57;14.60;75.20
45104;DHT22;30865;51.288;4.572;2023-04-24T10:45:23;14.30;77.40
45104;DHT22;30865;51.288;4.572;2023-04-24T10:47:57;14.10;79.60
45104;DHT22;30865;51.288;4.572;2023-04-24T10:50:25;13.80;80.60
45104;DHT22;30865;51.288;4.572;2023-04-24T10:52:50;13.70;81.70
45104;DHT22;30865;51.288;4.572;2023-04-24T10:55:47;13.60;83.00
45104;DHT22;30865;51.288;4.572;2023-04-24T10:58:14;13.40;82.80
45104;DHT22;30865;51.288;4.572;2023-04-24T11:00:41;13.50;84.20
45104;DHT22;30865;51.288;4.572;2023-04-24T11:03:30;13.30;86.00
45104;DHT22;30865;51.288;4.572;2023-04-24T11:06:00;13.20;86.20
45104;DHT22;30865;51.288;4.572;2023-04-24T11:11:03;13.40;84.10
45104;DHT22;30865;51.288;4.572;2023-04-24T11:16:30;13.50;88.00
45104;DHT22;30865;51.288;4.572;2023-04-24T11:19:05;13.30;87.90
45104;DHT22;30865;51.288;4.572;2023-04-24T11:24:25;12.90;85.80
45104;DHT22;30865;51.288;4.572;2023-04-24T11:26:53;12.80;87.60
45104;DHT22;30865;51.288;4.572;2023-04-24T11:29:19;12.70;87.20
45104;DHT22;30865;51.288;4.572;2023-04-24T11:31:46;12.70;88.30
45104;DHT22;30865;51.288;4.572;2023-04-24T11:34:18;12.90;88.90
45104;DHT22;30865;51.288;4.572;2023-04-24T11:36:45;13.40;88.60
45104;DHT22;30865;51.288;4.572;2023-04-24T11:39:11;13.60;88.80
45104;DHT22;30865;51.288;4.572;2023-04-24T11:41:37;13.90;86.50
45104;DHT22;30865;51.288;4.572;2023-04-24T11:44:05;14.10;86.40
45104;DHT22;30865;51.288;4.572;2023-04-24T11:46:31;14.00;82.30
45104;DHT22;30865;51.288;4.572;2023-04-24T11:48:58;13.80;83.30
45104;DHT22;30865;51.288;4.572;2023-04-24T11:51:24;13.60;83.70
45104;DHT22;30865;51.288;4.572;2023-04-24T11:53:54;13.50;86.30
45104;DHT22;30865;51.288;4.572;2023-04-24T11:56:24;13.20;84.60
45104;DHT22;30865;51.288;4.572;2023-04-24T11:58:53;12.90;85.90
45104;DHT22;30865;51.288;4.572;2023-04-24T12:01:21;12.80;86.50
45104;DHT22;30865;51.288;4.572;2023-04-24T12:03:50;12.90;88.30
45104;DHT22;30865;51.288;4.572;2023-04-24T12:06:29;12.80;88.30
45104;DHT22;30865;51.288;4.572;2023-04-24T12:08:55;13.00;87.60
45104;DHT22;30865;51.288;4.572;2023-04-24T12:11:22;13.60;86.50
45104;DHT22;30865;51.288;4.572;2023-04-24T12:13:48;13.70;84.50
45104;DHT22;30865;51.288;4.572;2023-04-24T12:16:13;13.90;85.20
45104;DHT22;30865;51.288;4.572;2023-04-24T12:18:44;14.10;83.00
45104;DHT22;30865;51.288;4.572;2023-04-24T12:23:43;14.30;81.60
45104;DHT22;30865;51.288;4.572;2023-04-24T12:26:10;13.80;81.00
45104;DHT22;30865;51.288;4.572;2023-04-24T12:28:37;13.60;82.50
45104;DHT22;30865;51.288;4.572;2023-04-24T12:31:03;13.60;83.50
45104;DHT22;30865;51.288;4.572;2023-04-24T12:33:33;13.20;84.60
45104;DHT22;30865;51.288;4.572;2023-04-24T12:35:59;13.20;86.40
45104;DHT22;30865;51.288;4.572;2023-04-24T12:38:27;13.40;86.90
45104;DHT22;30865;51.288;4.572;2023-04-24T12:41:07;13.50;85.80
45104;DHT22;30865;51.288;4.572;2023-04-24T12:43:33;13.60;86.60
45104;DHT22;30865;51.288;4.572;2023-04-24T12:45:59;13.90;81.30
45104;DHT22;30865;51.288;4.572;2023-04-24T12:48:26;13.90;80.80
45104;DHT22;30865;51.288;4.572;2023-04-24T12:50:51;13.90;80.40
45104;DHT22;30865;51.288;4.572;2023-04-24T12:53:17;14.40;79.00
45104;DHT22;30865;51.288;4.572;2023-04-24T12:55:43;14.50;77.10
45104;DHT22;30865;51.288;4.572;2023-04-24T12:58:09;14.00;77.90
45104;DHT22;30865;51.288;4.572;2023-04-24T13:00:35;14.40;79.00
45104;DHT22;30865;51.288;4.572;2023-04-24T13:03:01;14.40;79.70
45104;DHT22;30865;51.288;4.572;2023-04-24T13:05:27;13.90;80.20
45104;DHT22;30865;51.288;4.572;2023-04-24T13:07:53;13.60;81.80
45104;DHT22;30865;51.288;4.572;2023-04-24T13:10:18;13.00;85.30
45104;DHT22;30865;51.288;4.572;2023-04-24T13:12:44;12.90;88.90
45104;DHT22;30865;51.288;4.572;2023-04-24T13:15:11;12.90;88.40
45104;DHT22;30865;51.288;4.572;2023-04-24T13:17:37;12.80;90.30
45104;DHT22;30865;51.288;4.572;2023-04-24T13:20:04;12.60;94.00
45104;DHT22;30865;51.288;4.572;2023-04-24T13:22:29;12.60;96.30
45104;DHT22;30865;51.288;4.572;2023-04-24T13:24:55;12.70;95.60
45104;DHT22;30865;51.288;4.572;2023-04-24T13:27:21;13.30;98.80
45104;DHT22;30865;51.288;4.572;2023-04-24T13:29:47;14.00;99.40
45104;DHT22;30865;51.288;4.572;2023-04-24T13:32:12;14.20;93.70
45104;DHT22;30865;51.288;4.572;2023-04-24T13:34:38;14.20;94.20
45104;DHT22;30865;51.288;4.572;2023-04-24T13:37:04;14.40;94.70
45104;DHT22;30865;51.288;4.572;2023-04-24T13:39:30;13.90;95.70
45104;DHT22;30865;51.288;4.572;2023-04-24T13:41:56;14.10;95.20
45104;DHT22;30865;51.288;4.572;2023-04-24T13:44:22;14.30;92.50
45104;DHT22;30865;51.288;4.572;2023-04-24T13:46:52;14.20;92.80
45104;DHT22;30865;51.288;4.572;2023-04-24T13:49:20;13.80;92.50
45104;DHT22;30865;51.288;4.572;2023-04-24T13:51:45;13.50;92.30
45104;DHT22;30865;51.288;4.572;2023-04-24T13:54:11;13.10;94.10
45104;DHT22;30865;51.288;4.572;2023-04-24T13:56:37;13.10;95.70
45104;DHT22;30865;51.288;4.572;2023-04-24T13:59:02;12.70;97.10
45104;DHT22;30865;51.288;4.572;2023-04-24T14:01:28;12.50;99.90
45104;DHT22;30865;51.288;4.572;2023-04-24T14:03:54;12.10;99.90
45104;DHT22;30865;51.288;4.572;2023-04-24T14:06:21;12.00;99.90
45104;DHT22;30865;51.288;4.572;2023-04-24T14:08:47;11.40;99.90
45104;DHT22;30865;51.288;4.572;2023-04-24T14:11:13;11.50;99.90
45104;DHT22;30865;51.288;4.572;2023-04-24T14:13:40;11.40;99.90
45104;DHT22;30865;51.288;4.572;2023-04-24T14:16:06;11.50;99.90
45104;DHT22;30865;51.288;4.572;2023-04-24T14:18:31;11.60;99.90
45104;DHT22;30865;51.288;4.572;2023-04-24T14:20:57;11.90;99.90
45104;DHT22;30865;51.288;4.572;2023-04-24T14:23:22;12.00;99.90
45104;DHT22;30865;51.288;4.572;2023-04-24T14:25:48;12.30;99.90
45104;DHT22;30865;51.288;4.572;2023-04-24T14:28:17;12.90;99.90
45104;DHT22;30865;51.288;4.572;2023-04-24T14:30:43;13.30;99.90
45104;DHT22;30865;51.288;4.572;2023-04-24T14:33:08;13.20;99.90
45104;DHT22;30865;51.288;4.572;2023-04-24T14:35:34;13.10;99.50
45104;DHT22;30865;51.288;4.572;2023-04-24T14:38:00;12.80;99.90
45104;DHT22;30865;51.288;4.572;2023-04-24T14:40:26;13.20;99.90
45104;DHT22;30865;51.288;4.572;2023-04-24T14:42:51;12.90;99.00
45104;DHT22;30865;51.288;4.572;2023-04-24T14:45:18;13.10;98.30
45104;DHT22;30865;51.288;4.572;2023-04-24T14:47:44;13.20;98.80
45104;DHT22;30865;51.288;4.572;2023-04-24T14:50:10;13.90;99.10
45104;DHT22;30865;51.288;4.572;2023-04-24T14:52:37;13.70;97.60
45104;DHT22;30865;51.288;4.572;2023-04-24T14:55:03;13.80;98.00
45104;DHT22;30865;51.288;4.572;2023-04-24T14:57:29;13.20;98.00
45104;DHT22;30865;51.288;4.572;2023-04-24T14:59:54;13.30;98.60
45104;DHT22;30865;51.288;4.572;2023-04-24T15:02:20;13.40;99.70
45104;DHT22;30865;51.288;4.572;2023-04-24T15:04:46;13.60;98.50
45104;DHT22;30865;51.288;4.572;2023-04-24T15:07:11;14.20;96.80
45104;DHT22;30865;51.288;4.572;2023-04-24T15:09:37;15.80;93.60
45104;DHT22;30865;51.288;4.572;2023-04-24T15:12:03;16.60;90.70
45104;DHT22;30865;51.288;4.572;2023-04-24T15:14:28;16.90;88.20
45104;DHT22;30865;51.288;4.572;2023-04-24T15:16:54;16.80;88.10
45104;DHT22;30865;51.288;4.572;2023-04-24T15:19:20;15.70;88.30
45104;DHT22;30865;51.288;4.572;2023-04-24T15:21:45;15.30;89.80
45104;DHT22;30865;51.288;4.572;2023-04-24T15:24:11;15.10;90.00
45104;DHT22;30865;51.288;4.572;2023-04-24T15:26:36;14.60;90.70
45104;DHT22;30865;51.288;4.572;2023-04-24T15:29:02;14.10;91.30
45104;DHT22;30865;51.288;4.572;2023-04-24T15:31:28;13.40;92.00
45104;DHT22;30865;51.288;4.572;2023-04-24T15:33:53;13.60;93.50
45104;DHT22;30865;51.288;4.572;2023-04-24T15:36:19;13.50;93.90
45104;DHT22;30865;51.288;4.572;2023-04-24T15:38:46;13.50;92.90
45104;DHT22;30865;51.288;4.572;2023-04-24T15:41:12;13.50;92.60
45104;DHT22;30865;51.288;4.572;2023-04-24T15:43:37;13.50;93.30
45104;DHT22;30865;51.288;4.572;2023-04-24T15:46:04;13.40;93.30
45104;DHT22;30865;51.288;4.572;2023-04-24T15:48:30;13.50;94.50
45104;DHT22;30865;51.288;4.572;2023-04-24T15:50:56;13.60;94.50
45104;DHT22;30865;51.288;4.572;2023-04-24T15:53:21;13.20;99.90
45104;DHT22;30865;51.288;4.572;2023-04-24T15:55:51;12.60;99.90
45104;DHT22;30865;51.288;4.572;2023-04-24T15:58:17;12.00;99.90
45104;DHT22;30865;51.288;4.572;2023-04-24T16:00:43;12.00;99.90
45104;DHT22;30865;51.288;4.572;2023-04-24T16:03:09;11.90;99.90
45104;DHT22;30865;51.288;4.572;2023-04-24T16:05:35;12.00;99.90
45104;DHT22;30865;51.288;4.572;2023-04-24T16:08:00;12.10;99.90
45104;DHT22;30865;51.288;4.572;2023-04-24T16:10:26;12.40;99.90
45104;DHT22;30865;51.288;4.572;2023-04-24T16:12:52;12.60;99.90
45104;DHT22;30865;51.288;4.572;2023-04-24T16:15:19;13.20;99.90
45104;DHT22;30865;51.288;4.572;2023-04-24T16:17:45;13.40;99.90
45104;DHT22;30865;51.288;4.572;2023-04-24T16:20:11;13.70;99.90
45104;DHT22;30865;51.288;4.572;2023-04-24T16:22:38;13.50;99.90
45104;DHT22;30865;51.288;4.572;2023-04-24T16:25:04;13.80;99.90
45104;DHT22;30865;51.288;4.572;2023-04-24T16:27:30;14.50;99.90
45104;DHT22;30865;51.288;4.572;2023-04-24T16:29:56;14.50;99.90
45104;DHT22;30865;51.288;4.572;2023-04-24T16:32:21;13.70;98.90
45104;DHT22;30865;51.288;4.572;2023-04-24T16:34:47;13.60;99.90
45104;DHT22;30865;51.288;4.572;2023-04-24T16:37:13;13.30;99.90
45104;DHT22;30865;51.288;4.572;2023-04-24T16:39:39;13.30;99.90
45104;DHT22;30865;51.288;4.572;2023-04-24T16:42:09;13.10;99.90
45104;DHT22;30865;51.288;4.572;2023-04-24T16:44:35;13.00;99.90
45104;DHT22;30865;51.288;4.572;2023-04-24T16:47:04;12.90;99.90
45104;DHT22;30865;51.288;4.572;2023-04-24T16:49:29;12.80;99.90
45104;DHT22;30865;51.288;4.572;2023-04-24T16:51:57;12.90;99.90
45104;DHT22;30865;51.288;4.572;2023-04-24T16:54:22;12.80;99.90
45104;DHT22;30865;51.288;4.572;2023-04-24T16:56:48;12.70;99.90
45104;DHT22;30865;51.288;4.572;2023-04-24T16:59:14;12.60;99.90
45104;DHT22;30865;51.288;4.572;2023-04-24T17:01:39;12.60;99.90
45104;DHT22;30865;51.288;4.572;2023-04-24T17:04:05;12.80;99.90
45104;DHT22;30865;51.288;4.572;2023-04-24T17:06:30;12.80;99.90
45104;DHT22;30865;51.288;4.572;2023-04-24T17:08:56;12.80;99.90
45104;DHT22;30865;51.288;4.572;2023-04-24T17:11:22;14.40;99.90
45104;DHT22;30865;51.288;4.572;2023-04-24T17:13:47;15.00;99.90
45104;DHT22;30865;51.288;4.572;2023-04-24T17:16:13;14.20;99.90
45104;DHT22;30865;51.288;4.572;2023-04-24T17:18:39;13.80;99.90
45104;DHT22;30865;51.288;4.572;2023-04-24T17:21:04;13.70;99.90
45104;DHT22;30865;51.288;4.572;2023-04-24T17:23:30;13.30;99.90
45104;DHT22;30865;51.288;4.572;2023-04-24T17:25:55;13.30;99.90
45104;DHT22;30865;51.288;4.572;2023-04-24T17:28:26;13.30;99.90
45104;DHT22;30865;51.288;4.572;2023-04-24T17:30:53;13.00;99.90
45104;DHT22;30865;51.288;4.572;2023-04-24T17:33:20;12.90;99.90
45104;DHT22;30865;51.288;4.572;2023-04-24T17:35:45;12.70;99.70
45104;DHT22;30865;51.288;4.572;2023-04-24T17:38:11;12.60;99.90
45104;DHT22;30865;51.288;4.572;2023-04-24T17:40:37;12.40;99.90
45104;DHT22;30865;51.288;4.572;2023-04-24T17:43:03;12.30;98.50
45104;DHT22;30865;51.288;4.572;2023-04-24T17:45:29;12.20;99.90
45104;DHT22;30865;51.288;4.572;2023-04-24T17:47:55;12.20;99.20
45104;DHT22;30865;51.288;4.572;2023-04-24T17:50:21;12.10;99.90
45104;DHT22;30865;51.288;4.572;2023-04-24T17:52:46;12.00;99.90
45104;DHT22;30865;51.288;4.572;2023-04-24T17:55:12;12.00;99.90
45104;DHT22;30865;51.288;4.572;2023-04-24T17:57:37;12.10;99.90
45104;DHT22;30865;51.288;4.572;2023-04-24T18:00:06;12.10;98.80
45104;DHT22;30865;51.288;4.572;2023-04-24T18:02:31;12.30;98.50
45104;DHT22;30865;51.288;4.572;2023-04-24T18:04:57;12.20;99.90
45104;DHT22;30865;51.288;4.572;2023-04-24T18:07:23;11.90;99.60
45104;DHT22;30865;51.288;4.572;2023-04-24T18:09:48;11.90;99.30
45104;DHT22;30865;51.288;4.572;2023-04-24T18:12:14;11.80;99.90
45104;DHT22;30865;51.288;4.572;2023-04-24T18:14:40;11.80;99.90
45104;DHT22;30865;51.288;4.572;2023-04-24T18:17:06;11.70;99.50
45104;DHT22;30865;51.288;4.572;2023-04-24T18:19:31;11.80;99.90
45104;DHT22;30865;51.288;4.572;2023-04-24T18:21:57;11.70;99.90
45104;DHT22;30865;51.288;4.572;2023-04-24T18:24:23;11.70;99.90
45104;DHT22;30865;51.288;4.572;2023-04-24T18:26:49;11.70;99.90
45104;DHT22;30865;51.288;4.572;2023-04-24T18:29:14;11.70;99.90
45104;DHT22;30865;51.288;4.572;2023-04-24T18:31:40;11.60;99.80
45104;DHT22;30865;51.288;4.572;2023-04-24T18:34:05;11.60;99.90
45104;DHT22;30865;51.288;4.572;2023-04-24T18:36:33;11.80;99.90
45104;DHT22;30865;51.288;4.572;2023-04-24T18:39:00;11.60;99.90
45104;DHT22;30865;51.288;4.572;2023-04-24T18:41:25;11.60;99.90
45104;DHT22;30865;51.288;4.572;2023-04-24T18:43:51;11.50;99.90
45104;DHT22;30865;51.288;4.572;2023-04-24T18:46:17;11.60;99.90
45104;DHT22;30865;51.288;4.572;2023-04-24T18:48:42;11.60;99.90
45104;DHT22;30865;51.288;4.572;2023-04-24T18:51:08;11.50;99.90
45104;DHT22;30865;51.288;4.572;2023-04-24T18:53:34;11.60;99.90
45104;DHT22;30865;51.288;4.572;2023-04-24T18:56:00;11.50;99.90
45104;DHT22;30865;51.288;4.572;2023-04-24T18:58:25;11.40;99.90
45104;DHT22;30865;51.288;4.572;2023-04-24T19:00:55;11.40;99.90
45104;DHT22;30865;51.288;4.572;2023-04-24T19:03:24;11.30;99.90
45104;DHT22;30865;51.288;4.572;2023-04-24T19:05:49;11.30;99.90
45104;DHT22;30865;51.288;4.572;2023-04-24T19:08:16;11.10;99.90
45104;DHT22;30865;51.288;4.572;2023-04-24T19:10:42;11.10;99.90
45104;DHT22;30865;51.288;4.572;2023-04-24T19:13:07;11.00;99.90
45104;DHT22;30865;51.288;4.572;2023-04-24T19:15:33;11.00;99.90
45104;DHT22;30865;51.288;4.572;2023-04-24T19:17:58;10.90;99.90
45104;DHT22;30865;51.288;4.572;2023-04-24T19:20:25;11.00;99.90
45104;DHT22;30865;51.288;4.572;2023-04-24T19:22:50;10.90;99.90
45104;DHT22;30865;51.288;4.572;2023-04-24T19:25:16;11.00;99.90
45104;DHT22;30865;51.288;4.572;2023-04-24T19:27:42;11.00;99.90
45104;DHT22;30865;51.288;4.572;2023-04-24T19:30:08;11.00;99.90
45104;DHT22;30865;51.288;4.572;2023-04-24T19:32:33;10.90;99.90
45104;DHT22;30865;51.288;4.572;2023-04-24T19:34:59;10.90;99.90
45104;DHT22;30865;51.288;4.572;2023-04-24T19:37:25;10.90;99.90
45104;DHT22;30865;51.288;4.572;2023-04-24T19:39:51;10.90;99.90
45104;DHT22;30865;51.288;4.572;2023-04-24T19:42:16;10.80;99.90
45104;DHT22;30865;51.288;4.572;2023-04-24T19:44:42;10.60;99.90
45104;DHT22;30865;51.288;4.572;2023-04-24T19:47:08;10.40;99.90
45104;DHT22;30865;51.288;4.572;2023-04-24T19:49:33;10.30;99.90
45104;DHT22;30865;51.288;4.572;2023-04-24T19:51:59;10.20;99.90
45104;DHT22;30865;51.288;4.572;2023-04-24T19:54:24;10.10;99.90
45104;DHT22;30865;51.288;4.572;2023-04-24T19:56:50;10.20;99.90
45104;DHT22;30865;51.288;4.572;2023-04-24T19:59:15;10.00;99.90
45104;DHT22;30865;51.288;4.572;2023-04-24T20:01:41;10.00;99.90
45104;DHT22;30865;51.288;4.572;2023-04-24T20:04:07;9.90;99.90
45104;DHT22;30865;51.288;4.572;2023-04-24T20:06:35;9.90;99.90
45104;DHT22;30865;51.288;4.572;2023-04-24T20:09:01;9.90;99.90
45104;DHT22;30865;51.288;4.572;2023-04-24T20:11:27;9.90;99.90
45104;DHT22;30865;51.288;4.572;2023-04-24T20:13:52;9.90;99.90
45104;DHT22;30865;51.288;4.572;2023-04-24T20:16:18;9.90;99.90
45104;DHT22;30865;51.288;4.572;2023-04-24T20:18:43;9.90;99.90
45104;DHT22;30865;51.288;4.572;2023-04-24T20:21:09;9.90;99.90
45104;DHT22;30865;51.288;4.572;2023-04-24T20:23:35;9.90;99.90
45104;DHT22;30865;51.288;4.572;2023-04-24T20:26:00;9.90;99.90
45104;DHT22;30865;51.288;4.572;2023-04-24T20:28:27;10.00;99.90
45104;DHT22;30865;51.288;4.572;2023-04-24T20:30:53;9.90;99.90
45104;DHT22;30865;51.288;4.572;2023-04-24T20:33:20;9.80;99.90
45104;DHT22;30865;51.288;4.572;2023-04-24T20:35:46;9.80;99.90
45104;DHT22;30865;51.288;4.572;2023-04-24T20:38:14;9.80;99.90
45104;DHT22;30865;51.288;4.572;2023-04-24T20:40:40;9.70;99.90
45104;DHT22;30865;51.288;4.572;2023-04-24T20:43:06;9.60;99.90
45104;DHT22;30865;51.288;4.572;2023-04-24T20:45:33;9.60;99.90
45104;DHT22;30865;51.288;4.572;2023-04-24T20:47:58;9.50;99.90
45104;DHT22;30865;51.288;4.572;2023-04-24T20:50:24;9.50;99.90
45104;DHT22;30865;51.288;4.572;2023-04-24T20:52:49;9.50;99.90
45104;DHT22;30865;51.288;4.572;2023-04-24T20:55:15;9.50;99.90
45104;DHT22;30865;51.288;4.572;2023-04-24T20:57:41;9.50;99.90
45104;DHT22;30865;51.288;4.572;2023-04-24T21:00:08;9.40;99.90
45104;DHT22;30865;51.288;4.572;2023-04-24T21:02:35;9.40;99.90
45104;DHT22;30865;51.288;4.572;2023-04-24T21:05:00;9.40;99.90
45104;DHT22;30865;51.288;4.572;2023-04-24T21:07:26;9.30;99.90
45104;DHT22;30865;51.288;4.572;2023-04-24T21:09:51;9.30;99.90
45104;DHT22;30865;51.288;4.572;2023-04-24T21:12:17;9.30;99.90